Time;durP1;ratioP1;P1;durP2;ratioP2;P2;SDS_P1;SDS_P2;PMS_P1;PMS_P2;Temp;Humidity;BMP_temperature;BMP_pressure;BME280_temperature;BME280_humidity;BME280_pressure;Samples;Min_cycle;Max_cycle;Signal;HPM_P1;HPM_P2
2023/04/14 00:00:27;;;;;;;0.50;0.50;;;16.90;64.60;;;;;;5044686;28;20044;-77
2023/04/14 00:02:53;;;;;;;0.65;0.60;;;16.90;64.50;;;;;;5061877;28;20043;-77
2023/04/14 00:05:19;;;;;;;0.60;0.60;;;16.90;65.30;;;;;;5027200;28;20032;-77
2023/04/14 00:07:44;;;;;;;0.60;0.60;;;16.90;64.50;;;;;;5027410;28;20500;-77
2023/04/14 00:10:10;;;;;;;0.70;0.70;;;16.90;64.60;;;;;;5024367;28;20056;-77
2023/04/14 00:12:35;;;;;;;0.80;0.80;;;16.90;64.50;;;;;;5043657;28;20097;-77
2023/04/14 00:15:01;;;;;;;0.80;0.80;;;16.90;64.50;;;;;;5042897;28;20129;-77
2023/04/14 00:17:27;;;;;;;0.63;0.63;;;16.90;64.60;;;;;;5044571;28;20059;-77
2023/04/14 00:19:52;;;;;;;1.00;0.80;;;16.90;64.50;;;;;;5027169;28;20056;-77
2023/04/14 00:22:20;;;;;;;0.70;0.70;;;16.90;64.60;;;;;;5044950;28;20409;-77
2023/04/14 00:24:46;;;;;;;0.60;0.60;;;16.90;64.60;;;;;;5041924;28;20033;-77
2023/04/14 00:27:11;;;;;;;0.50;0.50;;;16.90;64.50;;;;;;5044485;28;20664;-77
2023/04/14 00:29:38;;;;;;;0.93;0.65;;;16.90;64.50;;;;;;5043222;28;20055;-77
2023/04/14 00:32:04;;;;;;;0.50;0.50;;;16.90;64.50;;;;;;5060623;28;20036;-78
2023/04/14 00:34:30;;;;;;;0.60;0.60;;;16.90;64.60;;;;;;5047826;28;20037;-79
2023/04/14 00:36:55;;;;;;;0.60;0.60;;;17.00;64.40;;;;;;5064960;28;20036;-79
2023/04/14 00:39:21;;;;;;;0.60;0.60;;;16.90;64.40;;;;;;5046986;28;20045;-80
2023/04/14 00:41:47;;;;;;;0.50;0.50;;;16.90;64.40;;;;;;5047434;28;20045;-79
2023/04/14 00:44:14;;;;;;;0.63;0.63;;;16.90;64.50;;;;;;5032194;28;20036;-79
2023/04/14 00:46:40;;;;;;;0.55;0.55;;;16.90;64.50;;;;;;5063278;28;20037;-79
2023/04/14 00:49:06;;;;;;;0.55;0.55;;;16.90;64.50;;;;;;5031598;28;20105;-79
2023/04/14 00:51:32;;;;;;;0.75;0.60;;;16.80;64.60;;;;;;5045317;28;20164;-80
2023/04/14 00:53:58;;;;;;;0.57;0.57;;;16.80;64.60;;;;;;5046470;28;20070;-79
2023/04/14 00:56:25;;;;;;;0.50;0.50;;;16.80;64.60;;;;;;5048795;28;20391;-79
2023/04/14 00:58:50;;;;;;;0.60;0.60;;;16.80;64.60;;;;;;5064673;28;20048;-79
2023/04/14 01:01:16;;;;;;;0.68;0.68;;;16.80;64.60;;;;;;5049499;28;20036;-79
2023/04/14 01:03:42;;;;;;;0.50;0.40;;;16.80;64.60;;;;;;5047809;28;20111;-80
2023/04/14 01:06:08;;;;;;;0.50;0.50;;;16.80;64.60;;;;;;5046450;28;20418;-79
2023/04/14 01:08:33;;;;;;;0.70;0.70;;;16.80;64.60;;;;;;5066895;28;20045;-79
2023/04/14 01:11:20;;;;;;;0.50;0.50;;;16.80;64.70;;;;;;5043129;28;20127;-79
2023/04/14 01:14:08;;;;;;;1.85;0.70;;;16.80;64.60;;;;;;5045819;28;20033;-79
2023/04/14 01:16:37;;;;;;;0.70;0.50;;;16.80;65.30;;;;;;5044843;28;20572;-79
2023/04/14 01:19:33;;;;;;;0.65;0.50;;;16.80;64.60;;;;;;5041320;28;20502;-80
2023/04/14 01:22:02;;;;;;;0.70;0.70;;;16.80;64.60;;;;;;5043652;28;20506;-80
2023/04/14 01:24:51;;;;;;;0.60;0.60;;;16.80;64.60;;;;;;5024064;28;20053;-79
2023/04/14 01:27:22;;;;;;;0.65;0.65;;;16.80;64.60;;;;;;5037034;28;20034;-79
2023/04/14 01:30:01;;;;;;;0.70;0.70;;;16.80;64.50;;;;;;5023732;28;20056;-79
2023/04/14 01:32:26;;;;;;;0.70;0.68;;;16.80;64.50;;;;;;5008428;28;20041;-79
2023/04/14 01:34:54;;;;;;;0.75;0.68;;;16.80;64.50;;;;;;5015919;28;20837;-79
2023/04/14 01:37:34;;;;;;;0.47;0.40;;;16.70;64.50;;;;;;5031002;28;20050;-80
2023/04/14 01:40:06;;;;;;;0.65;0.65;;;16.80;64.60;;;;;;5032186;28;20103;-79
2023/04/14 01:42:34;;;;;;;0.40;0.40;;;16.70;64.60;;;;;;5021882;28;20140;-79
2023/04/14 01:45:14;;;;;;;0.60;0.60;;;16.70;64.60;;;;;;5040116;28;20050;-79
2023/04/14 01:47:40;;;;;;;0.75;0.70;;;16.70;64.80;;;;;;5011085;28;20618;-79
2023/04/14 01:50:06;;;;;;;0.60;0.60;;;16.70;64.60;;;;;;5039425;28;20526;-79
2023/04/14 01:52:32;;;;;;;0.50;0.50;;;16.70;64.60;;;;;;5008979;28;20145;-79
2023/04/14 01:54:58;;;;;;;0.52;0.52;;;16.70;64.60;;;;;;5024574;28;20594;-79
2023/04/14 01:57:25;;;;;;;0.50;0.50;;;16.70;64.60;;;;;;5003817;28;20036;-79
2023/04/14 01:59:51;;;;;;;0.88;0.50;;;16.70;64.60;;;;;;5020561;28;20050;-79
2023/04/14 02:02:17;;;;;;;0.40;0.40;;;16.70;64.60;;;;;;5023469;28;20098;-79
2023/04/14 02:04:42;;;;;;;0.65;0.60;;;16.70;64.60;;;;;;5038548;28;20119;-79
2023/04/14 02:07:09;;;;;;;0.50;0.50;;;16.70;64.60;;;;;;5009473;28;20041;-79
2023/04/14 02:09:34;;;;;;;0.55;0.55;;;16.70;64.60;;;;;;5021853;28;20589;-79
2023/04/14 02:12:00;;;;;;;0.60;0.60;;;16.70;64.60;;;;;;5031131;28;20088;-79
2023/04/14 02:14:26;;;;;;;0.60;0.60;;;16.70;64.60;;;;;;5033663;28;20411;-79
2023/04/14 02:16:51;;;;;;;0.75;0.75;;;16.70;65.50;;;;;;5024913;28;20049;-79
2023/04/14 02:19:20;;;;;;;0.93;0.77;;;16.70;64.70;;;;;;5008176;28;20041;-79
2023/04/14 02:21:48;;;;;;;0.50;0.50;;;16.70;64.70;;;;;;5023567;28;20139;-79
2023/04/14 02:24:13;;;;;;;0.63;0.63;;;16.60;64.60;;;;;;5023700;28;20056;-79
2023/04/14 02:26:41;;;;;;;0.50;0.50;;;16.70;64.70;;;;;;5016649;28;20050;-79
2023/04/14 02:29:12;;;;;;;0.43;0.43;;;16.60;64.60;;;;;;4996721;28;20147;-79
2023/04/14 02:31:48;;;;;;;0.40;0.40;;;16.60;64.70;;;;;;5037857;28;20053;-79
2023/04/14 02:34:13;;;;;;;0.50;0.50;;;16.60;64.60;;;;;;5011395;28;20096;-79
2023/04/14 02:36:47;;;;;;;0.70;0.50;;;16.70;65.50;;;;;;5023910;28;20410;-79
2023/04/14 02:39:20;;;;;;;0.82;0.60;;;16.60;64.60;;;;;;5028948;28;20144;-79
2023/04/14 02:41:46;;;;;;;0.50;0.45;;;16.60;64.70;;;;;;5026815;28;20046;-79
2023/04/14 02:44:23;;;;;;;0.50;0.50;;;16.60;64.70;;;;;;5012656;28;20046;-79
2023/04/14 02:47:09;;;;;;;0.70;0.70;;;16.60;64.80;;;;;;5037545;28;20106;-80
2023/04/14 02:49:42;;;;;;;0.40;0.40;;;16.60;64.80;;;;;;5023554;28;20145;-79
2023/04/14 02:52:09;;;;;;;0.50;0.50;;;16.70;64.80;;;;;;5010147;28;20045;-80
2023/04/14 02:54:36;;;;;;;0.50;0.50;;;16.60;64.80;;;;;;5020551;28;21628;-79
2023/04/14 02:57:02;;;;;;;0.30;0.30;;;16.60;64.80;;;;;;5039848;28;20049;-79
2023/04/14 02:59:28;;;;;;;0.40;0.40;;;16.60;64.90;;;;;;5026512;28;20047;-79
2023/04/14 03:01:54;;;;;;;0.40;0.40;;;16.60;65.00;;;;;;5034789;28;20088;-79
2023/04/14 03:04:20;;;;;;;0.30;0.30;;;16.60;64.90;;;;;;5008899;28;20514;-79
2023/04/14 03:06:45;;;;;;;0.32;0.30;;;16.60;64.90;;;;;;5009275;28;20071;-79
2023/04/14 03:09:11;;;;;;;0.47;0.40;;;16.60;64.80;;;;;;5026844;28;20048;-79
2023/04/14 03:11:36;;;;;;;0.50;0.30;;;16.60;64.80;;;;;;5034076;28;20045;-79
2023/04/14 03:14:02;;;;;;;0.47;0.40;;;16.60;64.80;;;;;;5032123;28;20056;-79
2023/04/14 03:16:28;;;;;;;0.47;0.40;;;16.60;64.80;;;;;;5027591;28;20080;-80
2023/04/14 03:18:53;;;;;;;0.47;0.40;;;16.60;64.80;;;;;;5026123;28;20506;-79
2023/04/14 03:21:19;;;;;;;0.40;0.40;;;16.60;65.50;;;;;;5009347;28;20060;-79
2023/04/14 03:23:45;;;;;;;0.30;0.30;;;16.70;64.80;;;;;;5019375;28;20633;-79
2023/04/14 03:26:17;;;;;;;0.50;0.40;;;16.60;64.80;;;;;;5039039;28;20081;-79
2023/04/14 03:28:42;;;;;;;0.50;0.50;;;16.60;64.90;;;;;;5008494;28;20136;-79
2023/04/14 03:31:08;;;;;;;0.40;0.40;;;16.60;64.80;;;;;;5027507;28;20156;-79
2023/04/14 03:33:34;;;;;;;0.52;0.43;;;16.60;64.80;;;;;;5023962;28;20052;-79
2023/04/14 03:36:00;;;;;;;0.47;0.47;;;16.60;64.80;;;;;;5024650;28;20438;-79
2023/04/14 03:38:29;;;;;;;0.40;0.35;;;16.60;64.90;;;;;;5011619;28;20088;-79
2023/04/14 03:40:58;;;;;;;0.60;0.52;;;16.60;65.00;;;;;;5025883;28;20046;-79
2023/04/14 03:43:23;;;;;;;0.30;0.28;;;16.60;64.90;;;;;;5013530;28;20052;-79
2023/04/14 03:45:50;;;;;;;0.30;0.30;;;16.60;64.90;;;;;;5012473;28;20042;-79
2023/04/14 03:48:17;;;;;;;0.45;0.40;;;16.60;64.90;;;;;;5019274;28;20041;-79
2023/04/14 03:50:44;;;;;;;0.52;0.40;;;16.60;65.00;;;;;;5009922;28;20053;-79
2023/04/14 03:53:11;;;;;;;0.50;0.50;;;16.60;64.90;;;;;;4990762;28;20037;-79
2023/04/14 03:55:37;;;;;;;0.50;0.40;;;16.60;64.90;;;;;;5023718;28;20107;-79
2023/04/14 03:58:02;;;;;;;0.75;0.60;;;16.60;65.00;;;;;;5025611;28;20481;-79
2023/04/14 04:00:28;;;;;;;0.73;0.40;;;16.60;64.90;;;;;;5026002;28;20049;-79
2023/04/14 04:02:53;;;;;;;0.68;0.50;;;16.60;64.90;;;;;;5023566;28;20049;-79
2023/04/14 04:05:20;;;;;;;0.50;0.50;;;16.60;65.00;;;;;;5003561;28;20037;-79
2023/04/14 04:07:45;;;;;;;0.40;0.40;;;16.60;64.90;;;;;;5026085;28;20519;-79
2023/04/14 04:10:11;;;;;;;0.65;0.65;;;16.60;64.90;;;;;;5038724;28;20049;-79
2023/04/14 04:12:37;;;;;;;0.90;0.63;;;16.50;64.80;;;;;;5025329;28;20045;-79
2023/04/14 04:15:03;;;;;;;0.38;0.35;;;16.60;65.10;;;;;;5023321;28;20052;-79
2023/04/14 04:17:30;;;;;;;0.40;0.40;;;16.60;64.90;;;;;;5011382;28;20056;-79
2023/04/14 04:19:55;;;;;;;0.65;0.60;;;16.50;64.80;;;;;;5012981;28;20044;-79
2023/04/14 04:22:21;;;;;;;0.80;0.73;;;16.50;64.80;;;;;;5033035;28;20479;-79
2023/04/14 04:24:46;;;;;;;0.90;0.50;;;16.50;64.90;;;;;;5028918;28;20426;-79
2023/04/14 04:27:12;;;;;;;0.65;0.60;;;16.50;64.90;;;;;;5018242;28;20045;-79
2023/04/14 04:29:37;;;;;;;0.20;0.20;;;16.50;65.70;;;;;;5019949;28;20446;-79
2023/04/14 04:32:04;;;;;;;0.60;0.60;;;16.50;65.00;;;;;;5007783;28;20128;-79
2023/04/14 04:34:31;;;;;;;0.52;0.40;;;16.60;65.00;;;;;;5009867;28;20049;-79
2023/04/14 04:37:03;;;;;;;0.73;0.45;;;16.50;65.30;;;;;;5024895;28;20099;-79
2023/04/14 04:39:28;;;;;;;0.80;0.60;;;16.50;65.10;;;;;;5025540;28;20044;-79
2023/04/14 04:42:02;;;;;;;0.40;0.40;;;16.50;65.10;;;;;;5030278;28;20533;-79
2023/04/14 04:44:27;;;;;;;0.40;0.40;;;16.50;65.20;;;;;;5035653;28;20042;-79
2023/04/14 04:46:54;;;;;;;0.60;0.52;;;16.50;65.20;;;;;;5022719;28;23469;-79
2023/04/14 04:49:20;;;;;;;0.52;0.40;;;16.50;65.20;;;;;;5025736;28;20049;-79
2023/04/14 04:51:46;;;;;;;0.47;0.47;;;16.50;65.20;;;;;;5022811;28;20056;-79
2023/04/14 04:54:11;;;;;;;0.40;0.40;;;16.50;65.20;;;;;;5009344;28;20048;-79
2023/04/14 04:56:37;;;;;;;0.50;0.50;;;16.50;65.20;;;;;;5006456;28;20082;-79
2023/04/14 04:59:03;;;;;;;0.50;0.50;;;16.40;65.20;;;;;;5006909;28;20426;-79
2023/04/14 05:01:28;;;;;;;0.65;0.50;;;16.50;65.30;;;;;;5028845;28;20048;-79
2023/04/14 05:03:54;;;;;;;0.65;0.52;;;16.50;65.30;;;;;;5024509;28;20045;-79
2023/04/14 05:06:19;;;;;;;0.30;0.30;;;16.50;65.20;;;;;;5022204;28;20049;-79
2023/04/14 05:08:45;;;;;;;0.47;0.43;;;16.50;65.20;;;;;;5012515;28;20053;-78
2023/04/14 05:11:10;;;;;;;0.55;0.50;;;16.50;65.30;;;;;;5018226;28;20050;-77
2023/04/14 05:13:36;;;;;;;0.47;0.40;;;16.50;65.30;;;;;;5015399;28;20049;-78
2023/04/14 05:16:09;;;;;;;0.50;0.43;;;16.60;65.20;;;;;;4669176;28;9999841;-77
2023/04/14 05:18:37;;;;;;;0.53;0.50;;;16.60;65.00;;;;;;5014054;28;20168;-78
2023/04/14 05:21:07;;;;;;;0.50;0.47;;;16.50;64.90;;;;;;5004095;28;20046;-77
2023/04/14 05:23:33;;;;;;;1.85;0.38;;;16.50;65.00;;;;;;5017358;28;20108;-77
2023/04/14 05:25:59;;;;;;;0.45;0.35;;;16.50;65.00;;;;;;5015947;28;20049;-77
2023/04/14 05:28:24;;;;;;;0.60;0.52;;;16.50;65.00;;;;;;4981251;28;20050;-77
2023/04/14 05:30:50;;;;;;;0.40;0.40;;;16.50;64.80;;;;;;5029073;28;20042;-81
2023/04/14 05:33:16;;;;;;;0.50;0.40;;;16.50;64.90;;;;;;5019150;28;20466;-77
2023/04/14 05:35:43;;;;;;;0.70;0.30;;;16.50;65.10;;;;;;5001074;28;20116;-77
2023/04/14 05:38:09;;;;;;;0.35;0.35;;;16.60;65.40;;;;;;5006841;28;20044;-77
2023/04/14 05:40:35;;;;;;;0.30;0.30;;;16.60;65.10;;;;;;4998047;28;20081;-77
2023/04/14 05:43:01;;;;;;;0.40;0.40;;;16.60;65.00;;;;;;4991764;28;20168;-76
2023/04/14 05:45:26;;;;;;;0.50;0.47;;;16.60;64.90;;;;;;5008734;28;20128;-77
2023/04/14 05:47:52;;;;;;;0.80;0.55;;;16.50;64.80;;;;;;5004642;28;20443;-77
2023/04/14 05:50:17;;;;;;;0.38;0.30;;;16.60;64.90;;;;;;5000697;28;20128;-76
2023/04/14 05:52:43;;;;;;;0.55;0.40;;;16.60;64.90;;;;;;5012723;28;20053;-76
2023/04/14 05:55:09;;;;;;;0.40;0.40;;;16.60;64.90;;;;;;5014818;28;20049;-77
2023/04/14 05:57:35;;;;;;;0.60;0.50;;;16.60;64.70;;;;;;5013666;28;20060;-76
2023/04/14 06:00:00;;;;;;;0.40;0.38;;;16.60;64.90;;;;;;5002112;28;20046;-78
2023/04/14 06:02:26;;;;;;;0.63;0.43;;;16.60;65.00;;;;;;5001435;28;20104;-78
2023/04/14 06:04:51;;;;;;;0.57;0.55;;;16.60;65.00;;;;;;5005305;28;20061;-78
2023/04/14 06:07:17;;;;;;;0.32;0.30;;;16.70;64.90;;;;;;5017728;28;20045;-79
2023/04/14 06:09:45;;;;;;;1.30;0.30;;;16.60;64.90;;;;;;5012185;28;20133;-80
2023/04/14 06:12:11;;;;;;;0.50;0.50;;;16.70;64.80;;;;;;5018515;28;20558;-80
2023/04/14 06:14:37;;;;;;;0.55;0.30;;;16.60;64.90;;;;;;5030226;28;20037;-78
2023/04/14 06:17:03;;;;;;;0.40;0.40;;;16.60;65.10;;;;;;5024214;28;20049;-79
2023/04/14 06:19:28;;;;;;;0.30;0.30;;;16.60;65.30;;;;;;5031320;28;20056;-77
2023/04/14 06:21:54;;;;;;;0.57;0.43;;;16.60;65.40;;;;;;5023032;28;20513;-77
2023/04/14 06:24:19;;;;;;;0.47;0.47;;;16.60;65.00;;;;;;5026179;28;20105;-78
2023/04/14 06:26:45;;;;;;;0.60;0.60;;;16.60;65.30;;;;;;5024073;28;20064;-78
2023/04/14 06:29:10;;;;;;;0.68;0.57;;;16.60;65.40;;;;;;5011024;28;20045;-77
2023/04/14 06:31:36;;;;;;;0.73;0.50;;;16.60;65.50;;;;;;5013758;28;20064;-81
2023/04/14 06:34:02;;;;;;;1.05;0.35;;;16.60;65.80;;;;;;5028476;28;20041;-83
2023/04/14 06:36:27;;;;;;;0.50;0.50;;;16.60;65.70;;;;;;5030459;28;20049;-80
2023/04/14 06:38:53;;;;;;;0.50;0.50;;;16.60;65.40;;;;;;5011771;28;20084;-79
2023/04/14 06:41:19;;;;;;;0.20;0.20;;;16.60;65.50;;;;;;5009932;28;20467;-79
2023/04/14 06:43:45;;;;;;;0.50;0.50;;;16.60;65.90;;;;;;5012048;28;20092;-79
2023/04/14 06:46:10;;;;;;;1.95;0.32;;;16.60;65.90;;;;;;5010811;28;20038;-79
2023/04/14 06:48:36;;;;;;;1.40;0.38;;;16.60;65.80;;;;;;5032069;28;20045;-79
2023/04/14 06:51:02;;;;;;;0.80;0.35;;;16.60;65.80;;;;;;5035401;28;20545;-79
2023/04/14 06:53:28;;;;;;;0.80;0.40;;;16.60;65.70;;;;;;5031877;28;20044;-79
2023/04/14 06:55:59;;;;;;;0.82;0.30;;;16.60;65.80;;;;;;5031702;28;20041;-79
2023/04/14 06:58:28;;;;;;;0.40;0.40;;;16.60;66.00;;;;;;5039526;28;20037;-79
2023/04/14 07:00:57;;;;;;;0.63;0.40;;;16.60;66.00;;;;;;5033551;28;20213;-79
2023/04/14 07:03:23;;;;;;;0.40;0.20;;;16.60;66.10;;;;;;5036314;28;20111;-79
2023/04/14 07:05:49;;;;;;;0.45;0.40;;;16.50;66.00;;;;;;5033865;28;20041;-79
2023/04/14 07:08:18;;;;;;;0.28;0.20;;;16.50;65.90;;;;;;5032724;28;20487;-79
2023/04/14 07:10:44;;;;;;;0.40;0.25;;;16.50;65.90;;;;;;5035917;28;20069;-79
2023/04/14 07:13:09;;;;;;;0.65;0.40;;;16.50;65.90;;;;;;5032198;28;20072;-79
2023/04/14 07:15:35;;;;;;;0.20;0.20;;;16.50;65.80;;;;;;5035474;28;20477;-79
2023/04/14 07:18:00;;;;;;;1.58;0.28;;;16.50;66.60;;;;;;5028048;28;20044;-79
2023/04/14 07:20:26;;;;;;;0.28;0.28;;;16.50;65.80;;;;;;5014994;28;20069;-79
2023/04/14 07:22:52;;;;;;;0.35;0.20;;;16.50;65.70;;;;;;5037555;28;20054;-79
2023/04/14 07:25:18;;;;;;;0.30;0.30;;;16.60;66.50;;;;;;5031145;28;22779;-79
2023/04/14 07:27:43;;;;;;;0.40;0.40;;;16.60;65.70;;;;;;5037227;28;20076;-79
2023/04/14 07:30:09;;;;;;;0.95;0.40;;;16.60;65.60;;;;;;5026627;28;20038;-79
2023/04/14 07:32:34;;;;;;;0.10;0.10;;;16.60;65.60;;;;;;5031103;28;20170;-79
2023/04/14 07:35:00;;;;;;;0.28;0.28;;;16.60;65.70;;;;;;5014784;28;20495;-79
2023/04/14 07:37:25;;;;;;;0.38;0.38;;;16.60;65.70;;;;;;5016665;28;21066;-79
2023/04/14 07:39:51;;;;;;;0.35;0.30;;;16.60;65.50;;;;;;5027883;28;20053;-79
2023/04/14 07:42:17;;;;;;;1.83;0.30;;;16.60;65.50;;;;;;5030856;28;20041;-79
2023/04/14 07:44:42;;;;;;;0.10;0.10;;;16.60;65.40;;;;;;5016679;28;20045;-79
2023/04/14 07:47:08;;;;;;;0.28;0.20;;;16.60;66.30;;;;;;4999516;28;20087;-79
2023/04/14 07:49:34;;;;;;;0.30;0.30;;;16.60;65.40;;;;;;4999488;28;20534;-79
2023/04/14 07:52:00;;;;;;;0.20;0.20;;;16.60;65.40;;;;;;5028580;28;20045;-79
2023/04/14 07:54:25;;;;;;;0.40;0.25;;;16.60;65.50;;;;;;5027128;28;20395;-79
2023/04/14 07:56:51;;;;;;;0.30;0.30;;;16.60;65.60;;;;;;5034542;28;20132;-79
2023/04/14 07:59:17;;;;;;;0.38;0.30;;;16.60;65.60;;;;;;5034227;28;20084;-79
2023/04/14 08:01:42;;;;;;;0.40;0.32;;;16.60;65.50;;;;;;5029194;28;20041;-79
2023/04/14 08:04:08;;;;;;;0.20;0.20;;;16.60;65.60;;;;;;5033795;28;20053;-79
2023/04/14 08:06:34;;;;;;;0.20;0.20;;;16.60;65.70;;;;;;5028624;28;20087;-79
2023/04/14 08:08:59;;;;;;;0.22;0.20;;;16.60;65.70;;;;;;5032656;28;20098;-79
2023/04/14 08:11:25;;;;;;;0.32;0.20;;;16.60;65.70;;;;;;5029624;28;20041;-79
2023/04/14 08:13:51;;;;;;;0.32;0.20;;;16.60;65.80;;;;;;5034348;28;20523;-79
2023/04/14 08:16:17;;;;;;;0.13;0.13;;;16.60;65.80;;;;;;5034204;28;20030;-79
2023/04/14 08:18:43;;;;;;;0.10;0.10;;;16.60;65.70;;;;;;5031806;28;20049;-79
2023/04/14 08:21:09;;;;;;;0.20;0.20;;;16.60;65.70;;;;;;5030630;28;20050;-79
2023/04/14 08:23:35;;;;;;;0.47;0.20;;;16.60;65.70;;;;;;5032307;28;20376;-79
2023/04/14 08:26:01;;;;;;;0.17;0.10;;;16.60;65.90;;;;;;5034162;28;20402;-79
2023/04/14 08:28:27;;;;;;;0.32;0.20;;;16.60;65.90;;;;;;5028668;28;20546;-79
2023/04/14 08:30:53;;;;;;;0.20;0.20;;;16.60;65.90;;;;;;5027175;28;20132;-79
2023/04/14 08:33:19;;;;;;;0.20;0.20;;;16.60;65.80;;;;;;5032326;28;20127;-79
2023/04/14 08:35:44;;;;;;;0.20;0.20;;;16.60;65.90;;;;;;5029591;28;20037;-79
2023/04/14 08:38:10;;;;;;;0.30;0.10;;;16.60;66.00;;;;;;5027332;28;20411;-79
2023/04/14 08:40:37;;;;;;;0.32;0.17;;;16.60;66.00;;;;;;5030578;28;20060;-79
2023/04/14 08:43:03;;;;;;;0.10;0.10;;;16.60;65.90;;;;;;5033599;28;20132;-79
2023/04/14 08:45:30;;;;;;;0.30;0.30;;;16.60;65.90;;;;;;5033230;28;20142;-79
2023/04/14 08:47:55;;;;;;;0.10;0.10;;;16.60;65.80;;;;;;5030784;28;20058;-79
2023/04/14 08:50:21;;;;;;;0.10;0.10;;;16.60;65.80;;;;;;5032284;28;20402;-79
2023/04/14 08:52:47;;;;;;;0.30;0.20;;;16.60;65.80;;;;;;5018061;28;20112;-79
2023/04/14 08:55:13;;;;;;;0.20;0.20;;;16.60;65.70;;;;;;5028828;28;20120;-79
2023/04/14 08:57:38;;;;;;;0.32;0.32;;;16.60;65.80;;;;;;5035449;28;20156;-79
2023/04/14 09:00:05;;;;;;;0.22;0.22;;;16.60;65.70;;;;;;5031569;28;20066;-80
2023/04/14 09:02:33;;;;;;;0.15;0.15;;;16.60;65.70;;;;;;5031846;28;20051;-79
2023/04/14 09:04:59;;;;;;;0.20;0.20;;;16.60;65.50;;;;;;5027197;28;20056;-80
2023/04/14 09:07:25;;;;;;;0.17;0.17;;;16.70;65.50;;;;;;5017656;28;20577;-79
2023/04/14 09:09:51;;;;;;;0.35;0.20;;;16.70;65.50;;;;;;5031481;28;20029;-79
2023/04/14 09:12:17;;;;;;;0.20;0.20;;;16.70;65.50;;;;;;5039836;28;20111;-79
2023/04/14 09:14:45;;;;;;;0.20;0.20;;;16.70;65.00;;;;;;5027725;28;20037;-79
2023/04/14 09:17:11;;;;;;;0.20;0.20;;;16.70;65.10;;;;;;5033098;28;20041;-79
2023/04/14 09:19:37;;;;;;;1.20;0.28;;;16.80;64.80;;;;;;5045400;28;20044;-79
2023/04/14 09:22:02;;;;;;;0.20;0.17;;;16.80;64.80;;;;;;5035480;28;20044;-79
2023/04/14 09:24:28;;;;;;;0.10;0.10;;;16.80;64.20;;;;;;5045463;28;20137;-80
2023/04/14 09:26:54;;;;;;;0.10;0.10;;;16.90;64.20;;;;;;5045804;28;20110;-80
2023/04/14 09:29:20;;;;;;;0.20;0.20;;;16.90;64.00;;;;;;5043966;28;20037;-79
2023/04/14 09:31:46;;;;;;;0.30;0.30;;;16.90;64.10;;;;;;5027404;28;20280;-79
2023/04/14 09:34:19;;;;;;;0.20;0.20;;;16.90;64.10;;;;;;5044927;28;20530;-79
2023/04/14 09:37:07;;;;;;;0.30;0.30;;;16.90;64.10;;;;;;5040504;28;20045;-79
2023/04/14 09:39:33;;;;;;;0.22;0.20;;;16.90;64.10;;;;;;5041000;28;20064;-79
2023/04/14 09:42:00;;;;;;;0.20;0.13;;;16.90;64.10;;;;;;5044622;28;20036;-79
2023/04/14 09:44:26;;;;;;;0.30;0.30;;;16.90;64.10;;;;;;5043420;28;20041;-79
2023/04/14 09:47:03;;;;;;;0.22;0.20;;;16.90;64.10;;;;;;5041824;28;20839;-79
2023/04/14 09:49:29;;;;;;;0.40;0.40;;;16.90;65.10;;;;;;5039993;28;20087;-79
2023/04/14 09:52:02;;;;;;;0.30;0.30;;;16.90;64.30;;;;;;5026015;28;20037;-80
2023/04/14 09:54:27;;;;;;;0.25;0.20;;;16.80;64.40;;;;;;5051815;28;20074;-79
2023/04/14 09:56:53;;;;;;;0.30;0.20;;;16.90;64.40;;;;;;5063829;28;20529;-79
2023/04/14 09:59:32;;;;;;;0.43;0.43;;;16.90;64.20;;;;;;5030416;28;20476;-79
2023/04/14 10:01:59;;;;;;;0.30;0.30;;;16.90;64.40;;;;;;5061925;28;20045;-78
2023/04/14 10:04:27;;;;;;;0.45;0.45;;;16.80;64.50;;;;;;5049906;28;20041;-79
2023/04/14 10:06:59;;;;;;;0.40;0.30;;;16.80;64.60;;;;;;5033400;28;20045;-79
2023/04/14 10:09:28;;;;;;;0.43;0.43;;;16.80;64.60;;;;;;5048260;28;20025;-79
2023/04/14 10:12:23;;;;;;;0.30;0.28;;;16.80;64.70;;;;;;5031061;28;20584;-79
2023/04/14 10:14:49;;;;;;;0.35;0.25;;;16.70;64.70;;;;;;5026884;28;20132;-79
2023/04/14 10:17:15;;;;;;;0.40;0.38;;;16.80;64.80;;;;;;5048356;28;20128;-77
2023/04/14 10:19:40;;;;;;;0.28;0.28;;;16.80;65.10;;;;;;4693948;28;9999942;-87
2023/04/14 10:22:06;;;;;;;0.57;0.40;;;16.80;66.30;;;;;;5054515;28;20432;-81
2023/04/14 10:24:32;;;;;;;0.40;0.30;;;16.80;65.30;;;;;;5046533;28;20041;-80
2023/04/14 10:27:01;;;;;;;0.28;0.28;;;16.90;65.30;;;;;;5064549;28;20032;-80
2023/04/14 10:29:27;;;;;;;0.30;0.30;;;16.80;65.40;;;;;;4997179;28;20025;-80
2023/04/14 10:32:00;;;;;;;0.50;0.28;;;16.90;65.70;;;;;;5032074;28;20048;-82
2023/04/14 10:34:26;;;;;;;0.57;0.20;;;16.80;65.90;;;;;;5024114;28;20033;-80
2023/04/14 10:36:51;;;;;;;0.40;0.40;;;16.80;66.00;;;;;;5024843;28;20048;-79
2023/04/14 10:39:22;;;;;;;0.35;0.20;;;16.90;66.10;;;;;;5013033;28;20460;-82
2023/04/14 10:41:49;;;;;;;0.55;0.10;;;16.80;65.70;;;;;;5031016;28;20064;-79
2023/04/14 10:44:31;;;;;;;0.28;0.20;;;16.90;65.90;;;;;;5049460;28;20040;-79
2023/04/14 10:47:00;;;;;;;0.50;0.40;;;16.90;65.90;;;;;;5055178;28;20511;-80
2023/04/14 10:49:32;;;;;;;0.60;0.50;;;16.90;65.90;;;;;;5016145;28;20046;-81
2023/04/14 10:52:26;;;;;;;0.50;0.20;;;17.00;65.70;;;;;;5044327;28;20139;-81
2023/04/14 10:55:06;;;;;;;0.40;0.22;;;17.00;65.80;;;;;;5054682;28;20068;-80
2023/04/14 10:57:37;;;;;;;0.57;0.30;;;16.90;65.70;;;;;;5028549;28;20049;-78
2023/04/14 11:00:19;;;;;;;0.77;0.50;;;17.00;65.60;;;;;;5015166;28;20056;-80
2023/04/14 11:02:54;;;;;;;0.30;0.30;;;16.90;65.60;;;;;;5033753;28;20041;-80
2023/04/14 11:05:20;;;;;;;0.30;0.30;;;16.90;65.60;;;;;;4338854;28;10000586;-80
2023/04/14 11:07:47;;;;;;;0.52;0.40;;;17.00;65.60;;;;;;5013205;28;20048;-81
2023/04/14 11:10:18;;;;;;;0.73;0.50;;;16.90;65.40;;;;;;5015194;28;20399;-81
2023/04/14 11:12:44;;;;;;;0.52;0.30;;;16.90;65.40;;;;;;5044318;28;20060;-78
2023/04/14 11:15:09;;;;;;;1.42;0.20;;;16.90;65.50;;;;;;5041204;28;20049;-79
2023/04/14 11:17:39;;;;;;;0.45;0.40;;;16.90;65.90;;;;;;5025799;28;20049;-80
2023/04/14 11:20:17;;;;;;;0.50;0.30;;;16.90;65.80;;;;;;5042797;28;20098;-79
2023/04/14 11:22:46;;;;;;;0.52;0.30;;;16.90;65.70;;;;;;5021909;28;20048;-80
2023/04/14 11:25:13;;;;;;;0.47;0.30;;;17.00;65.60;;;;;;5059894;28;20044;-80
2023/04/14 11:27:41;;;;;;;1.90;0.25;;;16.90;65.60;;;;;;5063130;28;20064;-81
2023/04/14 11:30:17;;;;;;;0.73;0.57;;;16.90;65.70;;;;;;5037932;28;20092;-80
2023/04/14 11:32:52;;;;;;;1.45;0.50;;;16.90;65.70;;;;;;5051790;28;20063;-79
2023/04/14 11:35:19;;;;;;;0.40;0.35;;;16.90;65.70;;;;;;5061353;28;20047;-79
2023/04/14 11:37:47;;;;;;;0.32;0.28;;;17.00;65.50;;;;;;5011416;28;20048;-79
2023/04/14 11:40:13;;;;;;;0.88;0.57;;;17.00;65.50;;;;;;5008919;28;20049;-79
2023/04/14 11:42:46;;;;;;;0.57;0.40;;;17.10;65.50;;;;;;5026096;28;20087;-77
2023/04/14 11:45:14;;;;;;;0.93;0.43;;;17.10;65.60;;;;;;5061809;28;20083;-79
2023/04/14 11:47:48;;;;;;;0.43;0.30;;;17.10;65.60;;;;;;5040920;28;20060;-78
2023/04/14 11:50:15;;;;;;;0.70;0.57;;;17.10;65.70;;;;;;5056626;28;20041;-78
2023/04/14 11:52:45;;;;;;;0.55;0.30;;;17.10;65.80;;;;;;5026426;28;20557;-78
2023/04/14 11:55:12;;;;;;;0.30;0.30;;;17.10;65.60;;;;;;5028673;28;20075;-78
2023/04/14 11:57:43;;;;;;;0.57;0.38;;;17.10;65.40;;;;;;5032698;28;20037;-78
2023/04/14 12:00:10;;;;;;;0.52;0.50;;;17.20;65.30;;;;;;5034019;28;20050;-78
2023/04/14 12:02:36;;;;;;;0.43;0.30;;;17.10;65.20;;;;;;5052527;28;20052;-78
2023/04/14 12:05:02;;;;;;;0.30;0.30;;;17.20;65.30;;;;;;5028385;28;20502;-78
2023/04/14 12:07:29;;;;;;;0.40;0.20;;;17.20;65.10;;;;;;5034162;28;20051;-80
2023/04/14 12:09:54;;;;;;;0.40;0.30;;;17.20;65.10;;;;;;5038404;28;20554;-79
2023/04/14 12:12:20;;;;;;;1.40;0.40;;;17.10;65.20;;;;;;5047931;28;20131;-78
2023/04/14 12:14:48;;;;;;;0.20;0.20;;;17.10;65.30;;;;;;5035988;28;20073;-78
2023/04/14 12:17:19;;;;;;;0.20;0.20;;;17.10;65.60;;;;;;5061086;28;20045;-79
2023/04/14 12:19:44;;;;;;;0.73;0.50;;;17.10;65.70;;;;;;5040599;28;20036;-79
2023/04/14 12:22:10;;;;;;;0.43;0.35;;;17.10;65.70;;;;;;5032004;28;20041;-78
2023/04/14 12:24:40;;;;;;;4.15;0.50;;;17.10;65.90;;;;;;5075313;28;20052;-79
2023/04/14 12:27:08;;;;;;;1.00;0.75;;;17.20;65.70;;;;;;5049125;28;20033;-78
2023/04/14 12:29:36;;;;;;;0.40;0.28;;;17.20;65.40;;;;;;5042173;28;20434;-78
2023/04/14 12:32:08;;;;;;;0.45;0.45;;;17.20;65.50;;;;;;5033585;28;20143;-78
2023/04/14 12:34:34;;;;;;;0.50;0.40;;;17.20;65.70;;;;;;5049214;28;20830;-78
2023/04/14 12:37:08;;;;;;;0.50;0.30;;;17.20;65.80;;;;;;5043227;28;20044;-78
2023/04/14 12:39:53;;;;;;;;;;;17.20;65.70;;;;;;5028652;28;20422;-78
2023/04/14 12:42:18;;;;;;;0.60;0.57;;;17.20;65.80;;;;;;5027727;28;19916;-78
2023/04/14 12:45:00;;;;;;;0.45;0.40;;;17.20;65.80;;;;;;5030796;28;20048;-77
2023/04/14 12:47:30;;;;;;;1.95;0.30;;;17.20;65.80;;;;;;5065520;28;20052;-77
2023/04/14 12:49:57;;;;;;;0.68;0.40;;;17.20;66.10;;;;;;5064794;28;20041;-77